Date,TemperatureHighF,TemperatureAvgF,TemperatureLowF,DewpointHighF,DewpointAvgF,DewpointLowF,HumidityHigh,HumidityAvg,HumidityLow,PressureMaxIn,PressureMinIn,WindSpeedMaxMPH,WindSpeedAvgMPH,GustSpeedMaxMPH,PrecipitationSumIn
2012-1-1,39.0,32.6,25.0,35.0,21.1,14.0,88,64,41,0.00,40.00,32,24,46,0.00
2012-1-2,28.0,21.7,12.0,16.0,9.6,5.0,77,60,40,0.00,40.00,24,15,39,0.04
2012-1-3,38.0,26.5,8.0,20.0,12.7,6.0,92,58,36,0.00,40.00,12,7,19,0.00
2012-1-4,44.0,36.2,30.0,29.0,26.2,20.0,89,67,50,0.00,40.00,16,9,25,0.10
2012-1-5,64.0,46.0,31.0,32.0,27.9,25.0,78,52,27,0.00,40.00,14,7,24,0.00
2012-1-6,57.0,43.0,35.0,35.0,30.4,26.0,85,62,35,0.00,40.00,15,8,23,0.00
2012-1-7,41.0,33.9,26.0,29.0,25.9,23.0,93,72,59,0.00,40.00,12,5,18,0.00
2012-1-8,40.0,29.0,21.0,31.0,25.5,21.0,99,87,59,0.00,40.00,4,1,4,0.00
2012-1-9,51.0,36.1,23.0,29.0,25.1,21.0,98,67,39,0.00,40.00,16,8,26,0.00
2012-1-10,57.0,38.6,27.0,31.0,25.2,21.0,88,62,29,0.00,40.00,10,4,12,0.00
2012-1-11,49.0,31.5,17.0,34.0,24.7,15.0,93,77,50,0.00,40.00,24,10,37,0.14
2012-1-12,17.0,13.1,10.0,15.0,9.3,5.0,93,84,75,0.00,40.00,28,20,38,0.15
2012-1-13,18.0,12.0,7.0,11.0,7.9,4.0,88,83,68,0.00,40.00,19,8,27,0.00
2012-1-14,31.0,21.0,10.0,26.0,18.1,8.0,99,88,69,0.00,40.00,6,2,7,0.04
2012-1-15,48.0,30.1,15.0,32.0,24.7,15.0,99,82,50,0.00,40.00,16,7,25,0.00
2012-1-16,48.0,38.8,32.0,35.0,31.1,29.0,88,74,58,0.00,40.00,14,6,21,0.10
2012-1-17,32.0,18.6,7.0,29.0,14.6,3.0,98,84,61,0.00,40.00,24,14,35,0.41
2012-1-18,30.0,15.5,0.0,21.0,10.1,-1.0,93,80,60,0.00,40.00,21,7,30,0.00
2012-1-19,27.0,6.6,0.0,21.0,-1.3,-6.0,81,69,58,0.00,40.00,23,9,30,0.00
2012-1-20,12.0,8.5,2.0,9.0,3.2,-5.0,91,78,66,0.00,40.00,12,8,17,0.03
2012-1-21,24.0,16.3,7.0,21.0,13.5,5.0,92,88,84,0.00,40.00,13,7,19,0.00
2012-1-22,36.0,32.9,26.0,36.0,32.9,26.0,99,99,99,0.00,40.00,14,7,19,0.26
2012-1-23,35.0,29.2,26.0,35.0,25.3,20.0,99,85,75,0.00,40.00,23,-1,37,0.10
2012-1-24,33.0,27.5,25.0,25.0,20.7,-99.9,91,76,66,0.00,40.00,11,-3,14,0.00
2012-1-25,40.0,30.9,23.0,32.0,27.9,22.0,95,88,71,0.00,40.00,10,6,13,0.01
2012-1-26,46.0,36.6,30.0,37.0,31.3,-99.9,99,84,52,0.00,40.00,19,0,26,0.00
2012-1-27,36.0,31.2,27.0,32.0,25.7,-99.9,93,83,69,0.00,40.00,21,-8,29,0.00
2012-1-28,42.0,31.7,25.0,21.0,17.4,-99.9,79,57,34,0.00,40.00,18,3,27,0.00
2012-1-29,36.0,31.4,27.0,22.0,17.1,-99.9,78,57,45,0.00,40.00,15,-7,26,0.00
2012-1-30,64.0,46.6,31.0,37.0,26.7,-99.9,67,49,27,0.00,40.00,22,-4,29,0.00
2012-1-31,60.0,48.6,40.0,49.0,38.3,-99.9,93,71,41,0.00,40.00,16,-4,26,0.01
2012-2-1,57.0,39.9,29.0,39.0,33.8,29.0,99,82,38,0.00,40.00,6,2,11,0.04
2012-2-2,55.0,36.7,23.0,42.0,29.8,-99.9,99,81,37,0.00,40.00,6,-4,7,0.00
2012-2-3,38.0,34.1,32.0,35.0,32.7,-99.9,99,96,89,0.00,40.00,14,0,17,0.00
2012-2-4,34.0,32.7,33.0,34.0,31.2,-99.9,99,97,92,0.00,40.00,16,-4,26,0.41
2012-2-5,34.0,29.0,26.0,32.0,27.0,-99.9,99,94,87,0.00,40.00,13,-2,19,0.00
2012-2-6,34.0,26.6,22.0,30.0,25.5,22.0,99,95,82,0.00,40.00,8,4,9,0.03
2012-2-7,33.0,29.5,24.0,32.0,28.5,22.0,99,96,90,0.00,40.00,11,4,14,0.01
2012-2-8,29.0,24.8,15.0,26.0,18.7,11.0,94,78,59,0.00,40.00,6,3,12,0.00
2012-2-9,32.0,23.3,10.0,29.0,19.5,8.0,91,85,75,0.00,40.00,9,5,11,0.00
2012-2-10,34.0,20.6,11.0,30.0,13.0,1.0,87,71,61,0.00,40.00,22,13,30,0.00
2012-2-11,22.0,12.2,4.0,4.0,0.2,-4.0,67,58,42,0.00,40.00,21,13,29,0.00
2012-2-12,29.0,17.2,6.0,14.0,3.5,-1.0,71,55,36,0.00,40.00,13,5,18,0.00
2012-2-13,32.0,29.1,26.0,31.0,25.3,14.0,99,86,56,0.00,40.00,13,6,21,0.03
2012-2-14,39.0,32.9,27.0,32.0,29.7,27.0,99,88,67,0.00,40.00,9,5,11,0.00
2012-2-15,43.0,34.3,25.0,36.0,31.8,25.0,99,90,75,0.00,40.00,7,2,9,0.00
2012-2-16,45.0,35.0,27.0,35.0,27.4,21.0,99,77,43,0.00,40.00,14,7,21,0.00
2012-2-17,49.0,36.6,26.0,31.0,26.7,23.0,94,69,41,0.00,40.00,16,7,24,0.00
2012-2-18,41.0,30.2,23.0,25.0,21.3,19.0,90,71,46,0.00,40.00,11,4,17,0.00
2012-2-19,44.0,31.4,20.0,28.0,23.2,19.0,97,74,43,0.00,40.00,6,4,9,0.00
2012-2-20,49.0,36.1,26.0,34.0,27.4,22.0,86,71,56,0.00,40.00,19,9,32,0.00
2012-2-21,48.0,39.5,34.0,39.0,31.1,26.0,95,73,46,0.00,40.00,21,9,32,0.00
2012-2-22,51.0,40.6,33.0,34.0,31.3,29.0,92,71,47,0.00,40.00,17,4,26,0.00
2012-2-23,38.0,35.0,32.0,38.0,34.2,30.0,99,96,85,0.00,40.00,17,6,24,0.49
2012-2-24,32.0,29.5,27.0,32.0,23.2,15.0,99,78,56,0.00,40.00,24,14,32,0.18
2012-2-25,32.0,23.5,17.0,20.0,14.6,10.0,82,68,50,0.00,40.00,19,9,27,0.00
2012-2-26,53.0,39.3,26.0,31.0,25.2,19.0,80,58,39,0.00,40.00,26,12,32,0.00
2012-2-27,38.0,29.3,21.0,26.0,18.7,14.0,78,64,48,0.00,40.00,25,9,31,0.03
2012-2-28,49.0,38.6,31.0,46.0,32.7,25.0,96,79,59,0.00,40.00,12,8,17,0.01
2012-2-29,53.0,38.6,33.0,51.0,30.0,24.0,99,71,61,0.00,40.00,35,19,47,0.20
2012-3-1,46.0,36.2,28.0,34.0,29.0,-99.9,93,77,59,0.00,40.00,15,0,24,0.00
2012-3-2,42.0,34.5,32.0,38.0,28.7,-99.9,99,82,49,0.00,40.00,22,5,30,0.15
2012-3-3,37.0,30.7,25.0,22.0,18.2,-99.9,72,60,50,0.00,40.00,25,8,35,0.00
2012-3-4,30.0,24.7,18.0,29.0,19.4,-99.9,97,85,72,0.00,40.00,12,-17,16,0.22
2012-3-5,45.0,29.9,16.0,28.0,22.2,-99.9,96,76,45,0.00,40.00,14,0,18,0.00
2012-3-6,73.0,56.0,33.0,42.0,36.2,26.0,78,50,29,0.00,40.00,30,16,42,0.01
2012-3-7,67.0,52.8,35.0,53.0,41.8,-99.9,97,71,53,0.00,40.00,32,-7,42,0.11
2012-3-8,48.0,37.3,28.0,32.0,23.7,17.0,91,61,32,0.00,40.00,26,12,37,0.00
2012-3-9,47.0,35.7,24.0,23.0,18.2,13.0,72,51,29,0.00,40.00,18,5,26,0.00
2012-3-10,67.0,50.5,31.0,33.0,27.4,-99.9,68,44,24,0.00,40.00,26,12,38,0.03
2012-3-11,62.0,48.0,31.0,53.0,38.3,27.0,99,72,38,0.00,40.00,14,8,22,0.04
2012-3-12,63.0,53.3,46.0,52.0,47.7,45.0,99,82,54,0.00,40.00,11,7,20,0.05
2012-3-13,75.0,56.1,35.0,51.0,45.2,35.0,99,72,35,0.00,40.00,11,5,13,0.00
2012-3-14,81.0,66.2,49.0,62.0,55.9,46.0,91,71,43,0.00,40.00,20,10,29,0.00
2012-3-15,80.0,66.1,53.0,63.0,57.3,52.0,99,75,41,0.00,40.00,9,5,19,0.00
2012-3-16,83.0,68.5,55.0,64.0,57.5,53.0,99,72,37,0.00,40.00,14,7,37,0.00
2012-3-17,82.0,69.1,58.0,61.0,58.0,53.0,98,70,42,0.00,40.00,21,10,30,0.00
2012-3-18,80.0,68.0,58.0,59.0,57.5,54.0,95,71,48,0.00,40.00,26,12,34,0.02
2012-3-19,82.0,67.7,59.0,64.0,59.7,56.0,99,77,44,0.00,40.00,29,10,42,0.04
2012-3-20,75.0,62.9,57.0,62.0,56.1,-99.9,98,82,49,0.00,40.00,14,7,23,0.00
2012-3-21,69.0,62.9,58.0,63.0,59.1,56.0,98,88,62,0.00,40.00,11,-9,15,0.13
2012-3-22,67.0,58.0,48.0,62.0,54.2,-99.9,99,89,70,0.00,40.00,11,-2,21,0.31
2012-3-23,66.0,53.6,46.0,58.0,50.1,46.0,99,89,56,0.00,40.00,12,3,16,0.00
2012-3-24,72.0,61.7,53.0,58.0,54.1,50.0,96,77,56,0.00,40.00,11,4,18,0.00
2012-3-25,77.0,61.6,49.0,59.0,51.8,48.0,99,74,38,0.00,40.00,4,2,9,0.00
2012-3-26,63.0,55.1,48.0,54.0,41.9,32.0,95,64,39,0.00,40.00,19,12,35,0.02
2012-3-27,78.0,62.9,48.0,61.0,47.2,31.0,92,58,30,0.00,40.00,27,13,40,0.01
2012-3-28,74.0,60.3,47.0,46.0,40.3,35.0,83,50,28,0.00,40.00,13,4,19,0.00
2012-3-29,62.0,55.4,49.0,53.0,46.0,39.0,86,70,55,0.00,40.00,15,9,23,0.01
2012-3-30,59.0,52.7,46.0,54.0,51.0,46.0,99,94,81,0.00,40.00,20,4,29,1.23
2012-3-31,71.0,57.0,49.0,59.0,52.9,48.0,99,87,62,0.00,40.00,10,7,13,0.00
2012-4-1,86.0,69.6,53.0,62.0,57.9,52.0,98,70,35,0.00,40.00,12,5,15,0.00
2012-4-2,87.0,67.2,52.0,63.0,57.6,52.0,99,75,43,0.00,40.00,13,8,24,0.00
2012-4-3,71.0,63.3,57.0,59.0,53.5,48.0,94,72,47,0.00,40.00,18,7,26,0.00
2012-4-4,67.0,57.6,53.0,51.0,41.3,31.0,86,57,32,0.00,40.00,13,9,17,0.01
2012-4-5,63.0,52.3,41.0,35.0,29.0,26.0,67,41,28,0.00,40.00,14,9,19,0.00
2012-4-6,62.0,47.5,32.0,34.0,31.7,29.0,87,57,32,0.00,40.00,12,6,15,0.00
2012-4-7,58.0,47.9,37.0,53.0,41.4,28.0,99,80,40,0.00,40.00,12,6,22,0.43
2012-4-8,67.0,53.4,35.0,38.0,29.9,26.0,83,44,21,0.00,40.00,13,7,27,0.01
2012-4-9,66.0,54.1,40.0,33.0,25.6,18.0,53,33,23,0.00,40.00,24,9,36,0.00
2012-4-10,58.0,44.5,32.0,27.0,21.5,19.0,64,41,23,0.00,40.00,25,8,31,0.00
2012-4-11,56.0,41.4,27.0,27.0,22.9,19.0,74,49,32,0.00,40.00,7,4,13,0.00
2012-4-12,63.0,49.3,30.0,35.0,29.8,22.0,83,49,30,0.00,40.00,11,4,16,0.00
2012-4-13,56.0,51.1,47.0,53.0,46.1,32.0,99,85,41,0.00,40.00,23,10,34,0.00
2012-4-14,67.0,58.5,52.0,63.0,56.4,-99.9,99,95,82,0.00,40.00,17,6,42,0.34
2012-4-15,66.0,62.3,59.0,63.0,60.8,59.0,99,94,87,0.00,40.00,12,8,19,0.01
2012-4-17,67.0,56.9,41.0,47.0,42.1,38.0,93,60,39,0.00,40.00,11,6,16,0.00
2012-4-18,72.0,60.7,50.0,56.0,51.0,46.0,90,71,48,0.00,40.00,19,7,28,0.10
2012-4-19,66.0,57.6,45.0,59.0,55.1,44.0,99,91,70,0.00,40.00,15,5,24,0.47
2012-4-20,55.0,45.9,40.0,44.0,37.8,34.0,99,75,46,0.00,40.00,21,10,27,0.00
2012-4-21,56.0,45.7,36.0,44.0,37.7,34.0,98,75,49,0.00,40.00,10,4,12,0.26
2012-4-22,59.0,49.0,42.0,45.0,38.4,29.0,98,71,35,0.00,40.00,14,5,22,0.09
2012-4-23,65.0,51.4,39.0,45.0,37.7,-99.9,99,65,33,0.00,40.00,16,-1,22,0.00
2012-4-24,81.0,63.1,45.0,55.0,46.0,37.0,79,56,37,0.00,40.00,8,5,10,0.05
2012-4-25,86.0,68.8,50.0,64.0,56.6,49.0,97,68,42,0.00,40.00,11,5,21,0.02
2012-4-26,69.0,60.9,51.0,54.0,44.0,31.0,93,57,28,0.00,40.00,19,8,29,0.00
2012-4-27,58.0,51.3,47.0,40.0,32.3,26.0,73,49,31,0.00,40.00,25,13,39,0.00
2012-4-28,54.0,47.3,43.0,50.0,44.1,-99.9,99,91,65,0.00,40.00,17,8,22,0.01
2012-4-29,49.0,47.5,44.0,49.0,46.7,43.0,99,97,91,0.00,40.00,11,6,20,0.15
2012-4-30,64.0,53.5,49.0,52.0,49.7,47.0,99,87,57,0.00,40.00,6,3,15,0.00
2012-5-1,73.0,61.1,50.0,65.0,57.7,50.0,99,89,66,0.00,40.00,12,7,20,0.03
2012-5-2,76.0,68.5,60.0,70.0,65.3,59.0,99,90,75,0.00,40.00,26,9,37,0.08
2012-5-3,81.0,74.3,69.0,72.0,64.2,50.0,97,73,37,0.00,40.00,35,7,51,0.01
2012-5-4,82.0,71.6,64.0,69.0,66.0,63.0,98,84,51,0.00,40.00,12,6,21,0.08
2012-5-5,84.0,72.4,65.0,71.0,66.7,-99.9,98,85,62,0.00,40.00,12,7,21,0.01
2012-5-6,81.0,70.2,62.0,70.0,66.2,60.0,98,88,64,0.00,40.00,18,8,28,2.73
2012-5-7,71.0,64.6,60.0,61.0,51.3,43.0,97,66,39,0.00,40.00,19,9,26,0.00
2012-5-8,68.0,59.8,50.0,47.0,41.8,38.0,84,53,36,0.00,40.00,22,10,34,0.00
2012-5-9,69.0,57.3,48.0,50.0,44.6,40.0,94,65,36,0.00,40.00,14,6,18,0.00
2012-5-10,75.0,61.5,46.0,51.0,45.9,42.0,88,59,38,0.00,40.00,11,5,15,0.01
2012-5-11,82.0,68.0,54.0,57.0,51.6,39.0,90,58,40,0.00,40.00,15,8,26,0.00
2012-5-12,74.0,62.4,54.0,49.0,42.8,-99.9,73,51,37,0.00,40.00,11,6,22,0.00
2012-5-13,78.0,63.8,48.0,53.0,43.2,38.0,77,49,26,0.00,40.00,7,3,12,0.00
2012-5-14,80.0,65.5,48.0,49.0,45.2,39.0,86,51,28,0.00,40.00,8,4,14,0.00
2012-5-15,86.0,68.7,58.0,58.0,49.8,44.0,59,51,36,0.00,40.00,16,8,24,0.00
2012-6-21,80.0,75.4,65.0,61.0,57.1,55.0,84,54,43,0.00,40.00,10,5,19,0.00
2012-6-22,86.0,72.6,59.0,65.0,58.0,52.0,98,65,34,0.00,40.00,6,2,10,0.00
2012-6-23,78.0,68.5,61.0,69.0,63.1,59.0,97,84,58,0.00,40.00,13,4,15,0.05
2012-6-24,90.0,76.2,65.0,74.0,68.9,64.0,98,80,54,0.00,40.00,7,3,11,0.01
2012-6-25,81.0,72.6,62.0,72.0,58.2,-99.9,97,64,39,0.00,40.00,12,-1,19,0.00
2012-6-26,84.0,69.3,54.0,60.0,54.3,49.0,86,61,37,0.00,40.00,10,6,16,0.00
2012-6-27,97.0,81.5,65.0,76.0,64.9,54.0,78,58,44,0.00,40.00,19,9,29,0.00
2012-6-28,99.0,86.9,78.0,81.0,76.1,70.0,96,70,54,0.00,40.00,14,6,24,0.00
2012-6-29,95.0,77.5,69.0,77.0,69.5,63.0,97,78,46,0.00,40.00,18,3,37,0.00
2012-6-30,90.0,80.6,67.0,78.0,72.6,67.0,98,78,54,0.00,40.00,6,3,8,0.00
2012-7-1,94.0,81.4,72.0,78.0,72.5,66.0,98,78,40,0.00,40.00,12,4,21,0.00
2012-7-2,96.0,83.3,70.0,76.0,70.3,67.0,96,68,39,0.00,40.00,10,4,19,0.00
2012-7-3,97.0,84.8,73.0,74.0,71.3,69.0,94,67,40,0.00,40.00,12,5,26,0.00
2012-7-4,98.0,85.8,74.0,77.0,70.3,66.0,91,64,36,0.00,40.00,11,5,19,0.00
2012-7-5,99.0,86.3,76.0,77.0,70.4,66.0,87,60,40,0.00,40.00,7,4,10,0.00
2012-7-6,101.0,86.6,69.0,76.0,70.6,66.0,97,63,34,0.00,40.00,9,3,17,0.00
2012-7-7,105.0,86.5,71.0,79.0,72.9,69.0,96,67,34,0.00,40.00,12,4,20,0.00
2012-7-8,87.0,77.8,69.0,73.0,63.8,-99.9,97,66,43,0.00,40.00,9,-2,16,0.00
2012-7-9,92.0,77.5,63.0,69.0,64.0,60.0,96,66,36,0.00,40.00,10,3,16,0.00
2012-7-10,89.0,74.8,62.0,68.0,62.5,59.0,89,67,43,0.00,40.00,9,4,13,0.00
2012-7-11,90.0,75.3,60.0,62.0,58.0,54.0,93,59,32,0.00,40.00,12,4,15,0.00
2012-7-12,94.0,78.5,64.0,69.0,63.6,60.0,87,63,38,0.00,40.00,6,3,11,0.00
2012-7-13,86.0,75.4,66.0,71.0,66.5,63.0,95,76,50,0.00,40.00,9,3,13,0.01
2012-7-14,94.0,77.5,62.0,70.0,65.8,62.0,99,71,38,0.00,40.00,6,2,9,0.00
2012-7-15,99.0,81.5,66.0,72.0,65.8,-99.9,97,65,35,0.00,40.00,5,-6,7,0.00
2012-7-16,97.0,83.1,68.0,70.0,66.3,-99.9,94,61,39,0.00,40.00,9,-3,18,0.00
2012-7-17,99.0,85.7,72.0,73.0,69.0,66.0,89,61,36,0.00,40.00,9,4,17,0.00
2012-7-18,102.0,88.1,73.0,73.0,70.0,66.0,91,58,33,0.00,40.00,9,4,21,0.00
2012-7-19,92.0,80.5,69.0,74.0,68.7,66.0,97,70,44,0.00,40.00,12,5,21,0.00
2012-7-20,87.0,74.2,62.0,68.0,64.4,62.0,99,74,44,0.00,40.00,7,3,10,0.00
2012-7-21,96.0,78.7,63.0,69.0,65.1,61.0,98,68,33,0.00,40.00,7,3,10,0.00
2012-7-22,101.0,83.5,65.0,66.0,63.3,60.0,94,57,27,0.00,40.00,12,5,24,0.00
2012-7-23,105.0,89.0,72.0,67.0,65.4,63.0,79,48,28,0.00,40.00,11,5,19,0.00
2012-7-24,99.0,87.9,78.0,75.0,70.9,66.0,77,58,44,0.00,40.00,10,5,16,0.00
2012-7-25,103.0,89.0,74.0,75.0,68.8,64.0,94,56,30,0.00,40.00,27,8,56,0.00
2012-7-26,94.0,81.2,72.0,74.0,67.8,59.0,98,68,32,0.00,40.00,14,5,23,0.03
2012-7-27,86.0,75.7,65.0,67.0,61.6,58.0,93,64,41,0.00,40.00,12,5,21,0.00
2012-7-28,84.0,69.5,60.0,70.0,64.0,59.0,98,84,44,0.00,40.00,7,2,12,0.02
2012-7-29,93.0,78.4,67.0,73.0,67.3,64.0,98,72,42,0.00,40.00,12,5,24,0.07
2012-7-30,94.0,80.1,69.0,74.0,71.2,68.0,97,77,45,0.00,40.00,5,2,7,0.00
2012-7-31,93.0,80.3,69.0,73.0,66.4,60.0,97,67,33,0.00,40.00,6,3,13,0.00
2012-8-1,100.0,81.3,62.0,67.0,62.0,58.0,97,59,25,0.00,40.00,6,2,8,0.00
2012-8-2,96.0,80.6,68.0,67.0,65.3,62.0,90,63,38,0.00,40.00,7,3,12,0.00
2012-8-3,98.0,81.9,66.0,70.0,65.4,-99.9,95,62,30,0.00,40.00,7,-4,12,0.00
2012-8-4,83.0,74.1,67.0,75.0,69.2,61.0,100,85,60,0.00,40.00,27,4,51,0.04
2012-8-5,80.0,69.9,58.0,63.0,57.4,52.0,95,68,38,0.00,40.00,12,4,21,0.00
2012-8-6,90.0,71.2,52.0,65.0,56.6,52.0,97,66,32,0.00,40.00,5,2,7,0.00
2012-8-7,100.0,77.2,62.0,71.0,63.5,59.0,94,67,28,0.00,40.00,7,2,11,0.00
2012-8-8,87.0,72.1,63.0,71.0,67.4,62.0,98,87,52,0.00,40.00,22,3,32,1.31
2012-8-9,83.0,70.7,62.0,69.0,62.8,56.0,98,79,45,0.00,40.00,12,5,26,0.00
2012-8-10,78.0,65.4,55.0,60.0,56.6,54.0,98,76,43,0.00,40.00,9,4,17,0.00
2012-8-11,79.0,63.6,54.0,59.0,54.8,51.0,97,77,39,0.00,40.00,5,2,9,0.00
2012-8-12,71.0,64.3,61.0,66.0,61.6,58.0,99,91,73,0.00,40.00,9,4,14,0.53
2012-8-13,77.0,66.6,60.0,62.0,59.7,55.0,99,81,47,0.00,40.00,11,6,21,0.00
2012-8-14,84.0,71.1,57.0,63.0,57.5,53.0,97,67,35,0.00,40.00,6,3,10,0.00
2012-8-15,89.0,73.0,60.0,64.0,60.1,57.0,96,67,39,0.00,40.00,7,4,16,0.00
2012-8-16,77.0,69.1,58.0,70.0,59.1,50.0,98,72,45,0.00,40.00,23,7,34,0.01
2012-8-17,76.0,64.0,51.0,54.0,49.5,44.0,96,64,32,0.00,40.00,7,3,21,0.00
2012-8-18,77.0,62.7,46.0,60.0,50.4,46.0,97,68,35,0.00,40.00,4,1,8,0.00
2012-8-19,79.0,65.8,53.0,57.0,53.7,51.0,98,68,41,0.00,40.00,9,3,19,0.00
2012-8-20,81.0,66.6,54.0,58.0,53.6,49.0,97,67,35,0.00,40.00,6,2,11,0.00
2012-8-21,84.0,66.8,49.0,55.0,49.9,47.0,98,61,28,0.00,40.00,6,2,9,0.00
2012-8-22,95.0,73.7,54.0,59.0,54.5,51.0,91,57,26,0.00,40.00,6,3,11,0.00
2012-8-23,93.0,76.7,58.0,60.0,54.7,48.0,92,53,24,0.00,40.00,18,6,31,0.00
2012-8-24,92.0,78.1,66.0,62.0,56.7,52.0,84,49,30,0.00,40.00,11,4,21,0.00
2012-8-25,79.0,68.5,59.0,69.0,63.3,57.0,97,84,55,0.00,40.00,6,2,9,0.01
2012-8-26,81.0,71.6,66.0,73.0,69.0,65.0,98,92,64,0.00,40.00,7,3,10,3.54
2012-8-27,90.0,74.2,61.0,74.0,64.6,60.0,98,76,37,0.00,40.00,4,1,7,0.00
2012-8-28,92.0,76.2,61.0,68.0,63.5,60.0,97,69,35,0.00,40.00,5,1,9,0.00
2012-8-29,92.0,76.7,64.0,67.0,63.7,60.0,97,70,35,0.00,40.00,9,4,19,0.00
2012-8-30,93.0,78.4,64.0,66.0,62.8,60.0,94,62,33,0.00,40.00,10,5,16,0.00
2012-8-31,89.0,75.8,62.0,73.0,67.1,60.0,96,76,49,0.00,40.00,6,2,9,0.00
2012-9-1,79.0,74.2,67.0,73.0,66.2,55.0,97,77,58,0.00,40.00,12,7,17,0.00
2012-9-2,88.0,73.6,62.0,72.0,65.2,55.0,96,75,56,0.00,40.00,6,3,9,0.00
2012-9-3,89.0,76.5,65.0,76.0,69.9,64.0,98,82,54,0.00,40.00,6,2,11,0.01
2012-9-4,94.0,80.4,69.0,75.0,70.7,67.0,97,75,43,0.00,40.00,6,2,8,0.00
2012-9-5,88.0,74.8,63.0,73.0,63.7,60.0,97,71,39,0.00,40.00,22,6,32,0.11
2012-9-6,85.0,70.1,57.0,61.0,54.5,50.0,93,62,31,0.00,40.00,6,3,8,0.01
2012-9-7,74.0,66.9,58.0,65.0,59.0,47.0,94,76,54,0.00,40.00,12,6,34,0.07
2012-9-8,77.0,61.9,48.0,51.0,46.0,-99.9,97,60,32,0.00,40.00,15,-2,29,0.00
2012-9-9,77.0,62.2,49.0,53.0,48.8,44.0,96,65,36,0.00,40.00,9,3,16,0.00
2012-9-10,81.0,64.3,47.0,56.0,49.9,47.0,99,65,32,0.00,40.00,11,5,17,0.01
2012-9-11,91.0,71.6,51.0,60.0,53.4,50.0,98,59,25,0.00,40.00,15,6,24,0.00
2012-9-12,89.0,70.2,58.0,62.0,54.6,41.0,96,62,33,0.00,40.00,14,6,26,0.00
2012-9-13,62.0,55.1,51.0,55.0,51.6,47.0,99,88,56,0.00,40.00,17,5,30,0.23
2012-9-14,76.0,59.0,44.0,56.0,45.5,38.0,99,68,27,0.00,40.00,7,3,10,0.00
2012-9-15,79.0,61.6,42.0,54.0,45.9,41.0,97,63,27,0.00,40.00,7,4,13,0.00
2012-9-16,76.0,60.8,43.0,61.0,52.9,42.0,98,77,50,0.00,40.00,7,4,11,0.00
2012-9-17,69.0,58.2,47.0,64.0,54.1,42.0,99,87,47,0.00,40.00,20,4,30,0.41
2012-9-18,66.0,52.8,42.0,44.0,37.6,29.0,97,62,26,0.00,40.00,11,5,21,0.00
2012-9-19,81.0,62.8,41.0,50.0,43.0,36.0,90,53,31,0.00,40.00,24,9,32,0.00
2012-9-20,71.0,60.4,49.0,40.0,35.5,31.0,57,40,25,0.00,40.00,14,5,23,0.00
2012-9-21,74.0,57.9,47.0,47.0,43.8,39.0,87,61,35,0.00,40.00,14,4,21,0.00
2012-9-22,63.0,51.1,40.0,46.0,35.8,-99.9,87,59,38,0.00,40.00,14,6,26,0.00
2012-9-23,66.0,48.8,36.0,38.0,33.0,26.0,90,59,27,0.00,40.00,14,3,21,0.00
2012-9-24,77.0,55.0,34.0,48.0,37.2,27.0,92,56,27,0.00,40.00,11,4,17,0.00
2012-9-25,86.0,66.6,50.0,55.0,50.1,44.0,94,60,29,0.00,40.00,4,1,11,0.00
2012-9-26,76.0,60.1,49.0,45.0,41.4,36.0,77,52,27,0.00,40.00,9,3,13,0.00
2012-9-27,74.0,56.0,40.0,47.0,40.9,36.0,97,61,32,0.00,40.00,7,3,11,0.00
2012-9-28,76.0,56.4,37.0,47.0,40.2,36.0,96,60,30,0.00,40.00,6,1,10,0.00
2012-9-29,83.0,62.3,40.0,50.0,43.2,38.0,96,56,25,0.00,40.00,6,3,12,0.00
2012-9-30,83.0,64.7,46.0,49.0,44.7,40.0,87,51,29,0.00,40.00,7,3,16,0.00
2012-10-1,75.0,60.7,46.0,49.0,46.2,43.0,95,61,38,0.00,40.00,10,3,19,0.00
2012-10-2,78.0,61.1,49.0,53.0,49.5,45.0,96,69,37,0.00,40.00,7,3,14,0.00
2012-10-3,81.0,61.7,44.0,50.0,46.1,40.0,98,62,31,0.00,40.00,9,3,16,0.00
2012-10-4,60.0,53.3,46.0,52.0,42.3,34.0,82,67,44,0.00,40.00,18,8,29,0.01
2012-10-5,49.0,43.1,36.0,37.0,31.5,24.0,84,64,45,0.00,40.00,12,5,19,0.10
2012-10-6,46.0,39.0,30.0,31.0,27.4,23.0,77,63,54,0.00,40.00,13,6,24,0.00
2012-10-7,55.0,40.3,28.0,30.0,25.8,21.0,89,59,32,0.00,40.00,7,4,17,0.00
2012-10-8,65.0,50.7,33.0,40.0,34.0,26.0,77,54,36,0.00,40.00,24,10,34,0.00
2012-10-9,62.0,50.8,41.0,45.0,40.6,34.0,99,69,52,0.00,40.00,17,8,25,0.07
2012-10-10,58.0,43.1,30.0,35.0,29.2,21.0,96,63,28,0.00,40.00,12,5,19,0.00
2012-10-11,72.0,52.8,42.0,44.0,34.7,29.0,70,51,35,0.00,40.00,20,9,30,0.00
2012-10-12,60.0,47.5,32.0,49.0,29.9,23.0,97,53,28,0.00,40.00,11,6,16,0.13
2012-10-13,72.0,60.8,50.0,66.0,59.1,49.0,100,94,73,0.00,40.00,16,8,30,0.54
2012-10-14,64.0,57.1,51.0,64.0,52.5,40.0,99,85,63,0.00,40.00,21,10,35,0.54
2012-10-15,69.0,53.7,42.0,44.0,40.0,37.0,91,62,32,0.00,40.00,6,3,11,0.00
2012-10-16,78.0,60.4,45.0,51.0,46.9,43.0,92,65,35,0.00,40.00,22,8,30,0.04
2012-10-17,65.0,58.4,50.0,56.0,48.1,33.0,95,69,49,0.00,40.00,21,9,34,0.07
2012-10-18,51.0,46.4,44.0,47.0,39.0,28.0,99,78,43,0.00,40.00,22,10,37,0.42
2012-10-19,51.0,46.5,43.0,47.0,44.3,42.0,99,92,76,0.00,40.00,16,10,30,0.00
2012-10-20,59.0,48.4,42.0,46.0,43.7,41.0,97,85,56,0.00,40.00,7,3,15,0.00
2012-10-21,78.0,57.9,43.0,62.0,51.1,42.0,99,80,49,0.00,40.00,10,5,12,0.00
2012-10-22,72.0,66.5,62.0,68.0,64.7,60.0,99,93,81,0.00,40.00,7,4,16,0.26
2012-10-23,74.0,68.3,63.0,67.0,64.2,61.0,98,87,67,0.00,40.00,14,7,26,0.00
2012-10-24,80.0,72.0,63.0,68.0,65.2,62.0,97,80,60,0.00,40.00,17,8,30,0.00
2012-10-25,75.0,51.7,38.0,64.0,45.3,27.0,98,79,64,0.00,40.00,23,14,35,0.05
2012-10-26,47.0,38.7,32.0,30.0,26.4,23.0,83,62,44,0.00,40.00,16,7,24,0.00
2012-10-27,45.0,36.4,28.0,30.0,25.1,21.0,84,65,40,0.00,40.00,6,2,11,0.00
2012-10-28,51.0,35.8,24.0,30.0,22.5,16.0,93,63,29,0.00,40.00,4,2,6,0.00
2012-10-29,50.0,37.0,26.0,34.0,27.6,22.0,90,70,43,0.00,40.00,7,3,10,0.00
2012-10-30,56.0,39.7,28.0,30.0,27.7,26.0,92,66,33,0.00,40.00,13,5,21,0.00
2012-10-31,54.0,40.0,28.0,30.0,25.7,21.0,91,61,27,0.00,40.00,11,5,17,0.00
2012-11-1,62.0,46.2,36.0,41.0,34.8,28.0,83,66,43,0.00,40.00,13,5,20,0.00
2012-11-2,48.0,39.6,31.0,34.0,31.1,29.0,93,72,50,0.00,40.00,10,5,14,0.00
2012-11-3,56.0,44.0,34.0,36.0,31.6,27.0,85,63,37,0.00,40.00,6,3,9,0.00
2012-11-4,49.0,41.3,33.0,40.0,37.4,31.0,97,86,69,0.00,40.00,9,4,12,0.01
2012-11-5,44.0,41.1,39.0,41.0,38.3,35.0,100,90,72,0.00,40.00,10,6,14,0.00
2012-11-6,52.0,43.9,40.0,46.0,38.5,35.0,99,82,57,0.00,40.00,17,8,24,0.00
2012-11-7,50.0,41.4,29.0,37.0,33.0,27.0,96,73,50,0.00,40.00,17,4,24,0.00
2012-11-8,59.0,42.2,27.0,38.0,33.9,27.0,99,76,39,0.00,40.00,13,6,16,0.00
2012-11-9,61.0,50.2,38.0,52.0,43.9,36.0,97,80,55,0.00,40.00,7,5,12,0.00
2012-11-10,75.0,65.8,54.0,57.0,54.0,48.0,95,68,50,0.00,40.00,26,12,36,0.01
2012-11-11,67.0,42.3,25.0,58.0,37.6,15.0,99,84,51,0.00,40.00,19,11,34,1.86
2012-11-12,37.0,28.9,22.0,20.0,17.4,14.0,78,62,45,0.00,40.00,22,9,29,0.00
2012-11-13,49.0,34.1,19.0,31.0,23.9,17.0,89,68,36,0.00,40.00,9,5,12,0.00
2012-11-14,57.0,42.4,32.0,35.0,28.5,-99.9,92,63,29,0.00,40.00,11,6,14,0.00
2012-11-15,57.0,43.6,31.0,35.0,32.0,28.0,90,66,40,0.00,40.00,7,4,12,0.00
2012-11-16,58.0,39.6,27.0,36.0,31.5,27.0,98,76,40,0.00,40.00,5,2,8,0.00
2012-11-17,61.0,42.9,28.0,38.0,32.6,28.0,100,72,33,0.00,40.00,12,6,16,0.00
2012-11-18,62.0,47.3,33.0,36.0,32.5,30.0,92,59,32,0.00,40.00,13,7,16,0.00
2012-11-19,61.0,49.9,38.0,47.0,43.1,33.0,99,79,51,0.00,40.00,10,6,14,0.01
2012-11-20,60.0,44.7,34.0,43.0,38.8,33.0,99,82,47,0.00,40.00,6,3,12,0.00
2012-11-21,70.0,48.9,31.0,47.0,37.0,30.0,99,69,31,0.00,40.00,17,7,25,0.00
2012-11-22,66.0,53.7,40.0,50.0,39.8,30.0,75,59,42,0.00,40.00,25,13,42,0.00
2012-11-23,40.0,29.6,20.0,30.0,17.9,13.0,71,61,52,0.00,40.00,28,16,41,0.00
2012-11-24,35.0,25.3,17.0,24.0,17.6,13.0,87,73,54,0.00,40.00,9,5,13,0.00
2012-11-25,40.0,36.0,33.0,28.0,26.1,24.0,73,66,59,0.00,40.00,13,5,19,0.00
2012-11-26,33.0,26.7,14.0,25.0,17.2,8.0,76,66,54,0.00,40.00,17,7,23,0.00
2012-11-27,37.0,23.4,11.0,18.0,13.0,7.0,85,65,44,0.00,40.00,10,5,14,0.00
2012-11-28,48.0,31.1,20.0,29.0,22.1,17.0,92,71,42,0.00,40.00,7,4,9,0.00
2012-11-29,54.0,37.7,25.0,35.0,30.4,24.0,97,77,47,0.00,40.00,7,4,10,0.00
2012-11-30,53.0,37.8,26.0,37.0,33.1,26.0,99,84,55,0.00,40.00,6,2,8,0.00
2012-12-1,58.0,46.2,31.0,56.0,45.4,31.0,99,97,94,0.00,40.00,9,4,11,0.00
2012-12-2,54.0,49.9,44.0,54.0,49.4,44.0,99,97,90,0.00,40.00,10,3,13,0.00
2012-12-3,69.0,55.9,45.0,60.0,49.2,33.0,99,79,52,0.00,40.00,24,10,36,0.00
2012-12-4,60.0,43.7,33.0,33.0,27.4,22.0,76,55,27,0.00,40.00,15,5,20,0.00
2012-12-5,44.0,35.5,21.0,35.0,25.8,17.0,87,68,51,0.00,40.00,10,6,14,0.00
2012-12-6,52.0,44.7,42.0,41.0,34.7,-99.9,93,71,56,0.00,40.00,9,6,12,0.02
2012-12-7,42.0,39.4,36.0,40.0,33.6,31.0,92,80,70,0.00,40.00,7,4,10,0.00
2012-12-8,39.0,32.6,21.0,35.0,30.8,20.0,97,92,82,0.00,40.00,7,3,10,0.00
2012-12-9,38.0,32.5,21.0,38.0,30.3,14.0,100,91,75,0.00,40.00,21,9,32,0.06
2012-12-10,28.0,20.5,13.0,15.0,13.2,9.0,85,73,55,0.00,40.00,22,9,34,0.00
2012-12-11,41.0,27.6,13.0,21.0,16.2,9.0,85,63,40,0.00,40.00,13,7,19,0.00
2012-12-12,50.0,36.3,27.0,22.0,18.0,13.0,72,50,28,0.00,40.00,16,9,29,0.00
2012-12-13,51.0,39.6,26.0,23.0,19.6,14.0,69,45,33,0.00,40.00,17,8,30,0.00
2012-12-14,54.0,38.9,23.0,43.0,27.5,18.0,96,66,38,0.00,40.00,11,5,14,0.00
2012-12-15,49.0,44.8,40.0,49.0,44.0,38.0,100,97,86,0.00,40.00,12,8,23,0.02
2012-12-16,40.0,35.3,31.0,39.0,32.8,28.0,94,90,86,0.00,40.00,11,5,21,0.00
2012-12-17,36.0,30.4,27.0,31.0,27.1,25.0,95,87,68,0.00,40.00,6,2,11,0.00
2012-12-18,45.0,34.8,32.0,37.0,31.4,29.0,99,88,58,0.00,40.00,23,8,32,0.00
2012-12-19,36.0,33.1,31.0,34.0,31.9,29.0,100,95,88,0.00,40.00,19,6,26,0.38
2012-12-20,33.0,25.4,16.0,33.0,23.5,10.0,100,92,78,0.00,40.00,35,25,50,0.44
2012-12-21,23.0,14.6,10.0,13.0,8.3,5.0,91,76,59,0.00,40.00,23,10,35,0.00
2012-12-22,37.0,21.0,8.0,24.0,15.9,7.0,93,81,57,0.00,40.00,8,3,9,0.00
2012-12-23,24.0,18.0,12.0,19.0,15.0,11.0,97,87,73,0.00,40.00,9,5,12,0.00
2012-12-24,20.0,17.4,10.0,19.0,14.7,7.0,98,88,76,0.00,40.00,17,9,24,0.06
2012-12-25,15.0,9.0,4.0,7.0,3.8,0.0,87,79,66,0.00,40.00,17,9,21,0.00
2012-12-26,18.0,12.5,5.0,15.0,8.0,1.0,90,82,74,0.00,40.00,12,6,17,0.00
2012-12-27,26.0,17.8,7.0,23.0,14.6,6.0,94,87,78,0.00,40.00,8,4,10,0.00
2012-12-28,33.0,27.0,22.0,28.0,24.5,20.0,96,90,75,0.00,40.00,13,4,17,0.05
2012-12-29,22.0,16.4,11.0,21.0,12.8,9.0,94,85,73,0.00,40.00,17,8,25,0.03
2012-12-30,39.0,24.8,8.0,28.0,17.5,6.0,95,75,52,0.00,40.00,15,6,26,0.00
2012-12-31,36.0,21.2,13.0,25.0,14.9,7.0,85,76,62,0.00,40.00,14,8,21,0.00
2013-1-1,18.0,8.9,1.0,7.0,1.7,-3.0,84,73,52,0.00,40.00,9,4,15,0.00